createdAt,value
2023-02-09T00:03:26.011Z,100143.52
2023-02-09T00:07:16.662Z,100150.17
2023-02-09T00:11:07.734Z,100155.21
2023-02-09T00:14:59.200Z,100153.86
2023-02-09T00:33:58.544Z,100136.77
2023-02-09T00:37:47.882Z,100141.02
2023-02-09T00:41:36.865Z,100143.17
2023-02-09T00:45:26.757Z,100148.80
2023-02-09T00:49:01.892Z,100144.66
2023-02-09T00:52:51.820Z,100132.84
2023-02-09T00:56:42.760Z,100126.66
2023-02-09T01:00:33.879Z,100127.84
2023-02-09T01:04:03.407Z,100119.61
2023-02-09T01:07:54.181Z,100111.96
2023-02-09T01:11:42.896Z,100101.86
2023-02-09T01:15:30.969Z,100098.27
2023-02-09T01:19:20.183Z,100090.31
2023-02-09T01:23:10.728Z,100090.40
2023-02-09T01:27:02.410Z,100083.29
2023-02-09T01:30:52.473Z,100072.02
2023-02-09T01:34:35.352Z,100066.27
2023-02-09T01:38:26.261Z,100064.98
2023-02-09T01:42:16.986Z,100066.02
2023-02-09T01:46:06.469Z,100056.98
2023-02-09T02:17:07.438Z,100000.71
2023-02-09T02:20:57.076Z,99995.79
2023-02-09T02:24:45.986Z,99997.54
2023-02-09T02:36:46.571Z,100002.89
2023-02-09T02:40:34.383Z,99998.90
2023-02-09T02:56:20.164Z,99997.05
2023-02-09T03:00:09.246Z,99998.52
2023-02-09T03:03:58.387Z,99993.04
2023-02-09T03:07:45.797Z,99990.43
2023-02-09T03:11:35.176Z,99984.77
2023-02-09T03:15:24.456Z,99974.19
2023-02-09T03:31:21.645Z,99980.94
2023-02-09T03:35:10.702Z,99983.25
2023-02-09T03:38:59.886Z,99988.53
2023-02-09T03:42:49.025Z,99984.52
2023-02-09T03:46:38.342Z,99985.63
2023-02-09T03:50:28.387Z,99989.70
2023-02-09T03:54:17.403Z,99990.40
2023-02-09T03:58:08.623Z,99985.35
2023-02-09T04:01:56.892Z,99981.42
2023-02-09T04:21:22.854Z,99958.25
2023-02-09T04:25:10.743Z,99956.23
2023-02-09T04:28:58.539Z,99952.30
2023-02-09T04:32:38.310Z,99953.86
2023-02-09T04:36:07.032Z,99952.23
2023-02-09T04:39:56.363Z,99944.80
2023-02-09T04:43:45.599Z,99938.94
2023-02-09T04:47:34.890Z,99934.74
2023-02-09T04:51:23.886Z,99935.36
2023-02-09T04:55:13.298Z,99936.85
2023-02-09T04:59:00.676Z,99937.04
2023-02-09T05:02:41.998Z,99936.72
2023-02-09T05:06:38.818Z,99939.73
2023-02-09T05:10:30.268Z,99932.23
2023-02-09T05:14:22.487Z,99936.05
2023-02-09T05:44:53.091Z,99925.80
2023-02-09T05:48:42.153Z,99923.80
2023-02-09T05:52:11.484Z,99924.90
2023-02-09T05:55:09.489Z,99923.16
2023-02-09T05:58:51.432Z,99923.48
2023-02-09T06:02:26.052Z,99926.16
2023-02-09T06:06:05.926Z,99926.84
2023-02-09T06:09:32.058Z,99918.30
2023-02-09T06:12:52.916Z,99914.17
2023-02-09T06:15:45.562Z,99912.88
2023-02-09T06:18:38.738Z,99916.62
2023-02-09T06:21:41.154Z,99919.10
2023-02-09T06:24:58.728Z,99914.45
2023-02-09T06:28:48.656Z,99914.89
2023-02-09T06:32:10.874Z,99918.98
2023-02-09T06:35:50.856Z,99917.35
2023-02-09T06:57:36.296Z,99912.44
2023-02-09T07:00:28.108Z,99917.58
2023-02-09T07:03:12.547Z,99920.13
2023-02-09T07:06:08.059Z,99913.63
2023-02-09T07:09:57.379Z,99917.64
2023-02-09T07:13:26.192Z,99912.00
2023-02-09T07:16:58.655Z,99909.65
2023-02-09T07:20:48.062Z,99910.22
2023-02-09T07:24:37.263Z,99915.05
2023-02-09T07:28:14.879Z,99917.05
2023-02-09T07:32:03.605Z,99915.59
2023-02-09T07:35:23.499Z,99921.04
2023-02-09T07:37:59.245Z,99918.39
2023-02-09T07:40:53.201Z,99916.39
2023-02-09T07:44:01.989Z,99922.95
2023-02-09T07:47:52.790Z,99915.30
2023-02-09T07:55:14.665Z,99904.98
2023-02-09T07:58:55.796Z,99907.86
2023-02-09T08:25:45.421Z,99912.66
2023-02-09T08:29:14.999Z,99910.65
2023-02-09T08:33:04.048Z,99909.42
2023-02-09T08:36:45.755Z,99904.04
2023-02-09T08:40:25.919Z,99900.63
2023-02-09T08:43:14.945Z,99901.34
2023-02-09T08:46:54.931Z,99896.70
2023-02-09T09:05:41.547Z,99883.25
2023-02-09T09:09:29.373Z,99882.24
2023-02-09T09:13:18.364Z,99883.25
2023-02-09T09:17:00.424Z,99890.56
2023-02-09T09:20:43.538Z,99886.02
2023-02-09T09:24:13.304Z,99884.14
2023-02-09T09:27:45.524Z,99884.27
2023-02-09T09:30:56.804Z,99890.31
2023-02-09T09:34:44.779Z,99891.35
2023-02-09T09:38:15.120Z,99888.23
2023-02-09T09:42:01.992Z,99891.44
2023-02-09T09:45:15.675Z,99895.20
2023-02-09T09:48:50.783Z,99886.26
2023-02-09T09:52:30.577Z,99887.17
2023-02-09T09:55:49.501Z,99888.27
2023-02-09T09:59:27.076Z,99886.58
2023-02-09T10:02:33.272Z,99886.05
2023-02-09T10:06:00.942Z,99883.46
2023-02-09T10:09:55.522Z,99879.96
2023-02-09T10:13:30.765Z,99878.42
2023-02-09T10:28:49.350Z,99874.49
2023-02-09T10:32:50.709Z,99875.29
2023-02-09T10:36:44.093Z,99867.77
2023-02-09T10:52:10.913Z,99853.66
2023-02-09T10:55:27.906Z,99853.88
2023-02-09T10:58:57.294Z,99851.19
2023-02-09T11:02:24.467Z,99845.16
2023-02-09T11:05:44.013Z,99843.19
2023-02-09T11:09:14.511Z,99835.64
2023-02-09T11:13:02.031Z,99834.34
2023-02-09T11:17:05.104Z,99822.35
2023-02-09T11:29:14.828Z,99791.05
2023-02-09T11:33:19.042Z,99787.84
2023-02-09T11:37:09.724Z,99778.16
2023-02-09T11:56:29.432Z,99759.72
2023-02-09T12:00:26.627Z,99757.05
2023-02-09T12:03:59.500Z,99748.95
2023-02-09T12:07:22.284Z,99743.58
2023-02-09T12:11:01.790Z,99744.83
2023-02-09T12:14:44.982Z,99740.05
2023-02-09T12:18:11.930Z,99734.14
2023-02-09T12:21:18.674Z,99732.39
2023-02-09T12:24:42.252Z,99729.77
2023-02-09T12:28:25.400Z,99725.02
2023-02-09T12:31:33.920Z,99726.10
2023-02-09T12:34:52.785Z,99719.95
2023-02-09T12:38:24.349Z,99722.82
2023-02-09T12:42:14.773Z,99715.64
2023-02-09T12:46:11.172Z,99712.09
2023-02-09T12:49:52.120Z,99708.55
2023-02-09T12:53:32.437Z,99700.92
2023-02-09T13:40:58.571Z,99648.69
2023-02-09T13:43:39.714Z,99649.64
2023-02-09T13:46:22.740Z,99652.74
2023-02-09T13:50:20.129Z,99645.55
2023-02-09T13:53:32.943Z,99645.64
2023-02-09T14:28:58.839Z,99654.26
2023-02-09T14:32:46.271Z,99648.00
2023-02-09T14:35:42.507Z,99642.89
2023-02-09T14:39:20.964Z,99638.88
2023-02-09T14:42:58.423Z,99633.95
2023-02-09T14:46:29.882Z,99632.14
2023-02-09T14:49:28.828Z,99627.79
2023-02-09T14:52:48.129Z,99627.18
2023-02-09T14:55:44.558Z,99627.44
2023-02-09T14:59:13.665Z,99628.34
2023-02-09T15:02:53.981Z,99621.20
2023-02-09T15:06:42.056Z,99619.85
2023-02-09T15:09:56.230Z,99620.44
2023-02-09T15:13:39.544Z,99616.82
2023-02-09T15:17:19.822Z,99615.00
2023-02-09T15:20:46.354Z,99616.66
2023-02-09T15:24:00.785Z,99612.27
2023-02-09T15:27:55.252Z,99609.41
2023-02-09T16:03:13.875Z,99593.69
2023-02-09T16:06:16.125Z,99596.18
2023-02-09T16:08:50.298Z,99595.54
2023-02-09T16:12:26.496Z,99596.03
2023-02-09T16:15:26.650Z,99593.27
2023-02-09T16:19:07.079Z,99584.77
2023-02-09T16:22:22.636Z,99580.04
2023-02-09T16:25:59.210Z,99571.48
2023-02-09T16:29:49.282Z,99573.18
2023-02-09T16:32:49.103Z,99570.06
2023-02-09T16:35:42.069Z,99573.59
2023-02-09T16:38:36.186Z,99570.79
2023-02-09T16:42:05.963Z,99574.19
2023-02-09T16:45:24.524Z,99576.30
2023-02-09T16:48:44.448Z,99568.61
2023-02-09T16:52:34.693Z,99573.42
2023-02-09T17:03:02.624Z,99577.71
2023-02-09T17:06:15.464Z,99580.86
2023-02-09T17:08:59.373Z,99579.88
2023-02-09T18:08:44.049Z,99563.23
2023-02-09T18:12:08.535Z,99563.19
2023-02-09T18:15:32.504Z,99553.87
2023-02-09T18:18:56.017Z,99546.04
2023-02-09T18:22:35.340Z,99544.16
2023-02-09T18:26:15.417Z,99538.14
2023-02-09T19:44:26.271Z,99457.70
2023-02-09T19:48:08.531Z,99456.13
2023-02-09T19:51:46.857Z,99449.89
2023-02-09T19:54:57.645Z,99446.16
2023-02-09T19:58:35.768Z,99440.64
2023-02-09T20:02:11.085Z,99439.27
2023-02-09T20:37:21.605Z,99439.95
2023-02-09T20:40:49.195Z,99443.39
2023-02-09T20:43:59.988Z,99446.05
2023-02-09T20:47:17.946Z,99450.17
2023-02-09T20:50:29.424Z,99451.27
2023-02-09T20:54:18.446Z,99448.45
2023-02-09T20:58:07.886Z,99444.52
2023-02-09T21:01:20.588Z,99442.69
2023-02-09T21:04:32.412Z,99446.42
2023-02-09T21:07:44.036Z,99442.54
2023-02-09T21:11:15.840Z,99436.73
2023-02-09T21:14:46.498Z,99429.09
2023-02-09T21:18:08.021Z,99433.31
2023-02-09T21:21:47.175Z,99435.20
2023-02-09T21:25:33.954Z,99440.77
2023-02-09T21:28:48.706Z,99435.58
2023-02-09T21:32:36.564Z,99436.70
2023-02-09T21:36:00.114Z,99426.66
2023-02-09T21:39:32.949Z,99425.41
2023-02-09T21:42:57.761Z,99432.62
2023-02-09T21:46:22.872Z,99438.23
2023-02-09T21:49:21.145Z,99433.15
2023-02-09T21:52:43.116Z,99435.83
2023-02-09T21:56:02.778Z,99438.27
2023-02-09T21:58:43.437Z,99442.18
2023-02-09T22:02:02.207Z,99441.16
2023-02-09T22:05:15.494Z,99433.13
2023-02-09T22:08:55.456Z,99435.50
2023-02-09T22:11:51.734Z,99436.16
2023-02-09T22:15:29.610Z,99426.17
2023-02-09T22:18:42.212Z,99420.98
2023-02-09T22:21:36.879Z,99418.30
2023-02-09T22:25:06.050Z,99416.56
2023-02-09T22:28:18.224Z,99419.49
2023-02-09T22:32:06.223Z,99431.14
2023-02-09T22:35:14.561Z,99452.13
2023-02-09T22:38:28.850Z,99455.21
2023-02-09T22:42:20.529Z,99449.35
2023-02-09T22:46:09.774Z,99447.64
2023-02-09T22:49:51.929Z,99455.69
2023-02-09T22:53:35.322Z,99462.65
2023-02-09T22:57:24.380Z,99460.15
2023-02-09T23:01:06.987Z,99462.63
2023-02-09T23:04:37.868Z,99459.35
2023-02-09T23:08:26.960Z,99461.65
2023-02-09T23:11:58.921Z,99469.84
2023-02-09T23:15:47.739Z,99478.37
2023-02-09T23:19:17.013Z,99492.92
2023-02-09T23:23:06.622Z,99504.31
2023-02-09T23:26:57.105Z,99504.16
2023-02-09T23:30:50.631Z,99502.86
2023-02-09T23:34:34.146Z,99492.09
2023-02-09T23:52:42.331Z,99482.92
